createdAt,value
2023-05-10T00:00:21.546Z,100877.34
2023-05-10T00:02:48.327Z,100870.03
2023-05-10T00:05:15.452Z,100871.75
2023-05-10T00:07:45.703Z,100865.31
2023-05-10T00:10:12.851Z,100868.56
2023-05-10T00:12:39.794Z,100861.78
2023-05-10T00:15:07.102Z,100856.03
2023-05-10T00:17:33.893Z,100849.44
2023-05-10T00:20:00.493Z,100847.75
2023-05-10T00:22:27.222Z,100832.69
2023-05-10T00:24:53.758Z,100830.97
2023-05-10T00:27:20.278Z,100831.31
2023-05-10T00:29:46.873Z,100825.72
2023-05-10T00:32:15.023Z,100830.97
2023-05-10T00:34:41.810Z,100819.81
2023-05-10T00:37:08.391Z,100816.06
2023-05-10T00:39:34.926Z,100817.78
2023-05-10T00:42:01.700Z,100812.69
2023-05-10T00:44:28.574Z,100818.59
2023-05-10T00:46:55.168Z,100809.97
2023-05-10T00:49:22.020Z,100811.81
2023-05-10T00:51:48.734Z,100814.69
2023-05-10T00:54:16.243Z,100813.50
2023-05-10T00:56:42.977Z,100813.97
2023-05-10T00:59:09.805Z,100806.22
2023-05-10T01:01:37.197Z,100810.78
2023-05-10T01:04:04.439Z,100804.50
2023-05-10T01:06:31.115Z,100801.09
2023-05-10T01:08:57.701Z,100799.41
2023-05-10T01:11:24.317Z,100796.03
2023-05-10T01:13:56.120Z,100786.22
2023-05-10T01:16:22.878Z,100783.16
2023-05-10T01:18:49.794Z,100779.75
2023-05-10T01:21:16.262Z,100784.66
2023-05-10T01:24:04.190Z,100784.84
2023-05-10T01:26:58.483Z,100780.41
2023-05-10T01:30:13.643Z,100783.28
2023-05-10T01:32:41.748Z,100779.88
2023-05-10T01:35:24.215Z,100776.34
2023-05-10T01:38:00.525Z,100773.63
2023-05-10T01:40:28.534Z,100773.78
2023-05-10T01:43:01.473Z,100779.84
2023-05-10T01:45:42.687Z,100785.06
2023-05-10T01:48:13.004Z,100784.25
2023-05-10T01:50:43.337Z,100779.16
2023-05-10T01:53:11.984Z,100779.16
2023-05-10T01:55:47.961Z,100773.06
2023-05-10T01:58:16.713Z,100774.59
2023-05-10T02:00:47.524Z,100787.97
2023-05-10T02:03:14.996Z,100783.72
2023-05-10T02:05:42.375Z,100778.94
2023-05-10T02:08:09.432Z,100783.16
2023-05-10T02:10:36.430Z,100783.69
2023-05-10T02:13:03.985Z,100777.09
2023-05-10T02:15:30.963Z,100782.69
2023-05-10T02:17:58.964Z,100780.13
2023-05-10T02:20:26.649Z,100775.59
2023-05-10T02:22:55.825Z,100770.13
2023-05-10T02:25:23.523Z,100770.38
2023-05-10T02:27:50.258Z,100757.97
2023-05-10T02:30:18.099Z,100751.19
2023-05-10T02:32:45.375Z,100750.66
2023-05-10T02:35:12.306Z,100752.66
2023-05-10T02:37:39.811Z,100756.72
2023-05-10T02:40:07.474Z,100753.09
2023-05-10T02:42:37.428Z,100751.91
2023-05-10T02:45:08.934Z,100744.78
2023-05-10T02:47:35.583Z,100745.47
2023-05-10T02:50:02.357Z,100742.13
2023-05-10T02:52:32.045Z,100745.22
2023-05-10T02:55:02.303Z,100750.28
2023-05-10T02:57:33.548Z,100743.22
2023-05-10T03:00:01.237Z,100736.97
2023-05-10T03:02:28.223Z,100725.63
2023-05-10T03:04:54.859Z,100727.97
2023-05-10T03:07:22.337Z,100721.25
2023-05-10T03:09:51.832Z,100714.84
2023-05-10T03:12:50.443Z,100722.00
2023-05-10T03:15:30.660Z,100719.34
2023-05-10T03:18:12.186Z,100709.22
2023-05-10T03:20:49.503Z,100705.34
2023-05-10T03:23:19.154Z,100707.03
2023-05-10T03:25:48.140Z,100704.16
2023-05-10T03:28:15.832Z,100709.44
2023-05-10T03:30:43.444Z,100711.28
2023-05-10T03:33:10.221Z,100710.94
2023-05-10T03:35:36.873Z,100711.63
2023-05-10T03:38:03.443Z,100711.47
2023-05-10T03:40:32.450Z,100706.56
2023-05-10T03:43:01.300Z,100711.97
2023-05-10T03:45:28.418Z,100710.97
2023-05-10T03:47:55.097Z,100719.41
2023-05-10T03:50:22.141Z,100715.00
2023-05-10T03:52:48.991Z,100715.16
2023-05-10T03:55:16.055Z,100709.59
2023-05-10T03:57:42.757Z,100716.72
2023-05-10T04:00:10.451Z,100711.78
2023-05-10T04:02:37.239Z,100709.28
2023-05-10T04:05:04.572Z,100705.00
2023-05-10T04:07:31.105Z,100696.22
2023-05-10T04:09:57.730Z,100691.94
2023-05-10T04:12:24.357Z,100706.13
2023-05-10T04:14:50.985Z,100707.16
2023-05-10T04:17:17.621Z,100702.75
2023-05-10T04:19:44.107Z,100709.66
2023-05-10T04:22:10.713Z,100703.13
2023-05-10T04:24:37.347Z,100701.81
2023-05-10T04:27:03.928Z,100711.28
2023-05-10T04:29:30.696Z,100704.69
2023-05-10T04:31:57.646Z,100712.66
2023-05-10T04:34:24.356Z,100699.63
2023-05-10T04:36:51.203Z,100705.56
2023-05-10T04:39:17.915Z,100690.84
2023-05-10T04:41:44.708Z,100692.19
2023-05-10T04:44:11.291Z,100699.81
2023-05-10T04:46:39.312Z,100697.75
2023-05-10T04:49:08.523Z,100704.53
2023-05-10T04:51:35.111Z,100705.91
2023-05-10T04:54:06.574Z,100711.31
2023-05-10T04:56:33.456Z,100706.59
2023-05-10T04:59:00.040Z,100719.81
2023-05-10T05:01:26.670Z,100715.09
2023-05-10T05:03:54.199Z,100701.03
2023-05-10T05:06:22.251Z,100706.44
2023-05-10T05:08:50.415Z,100723.69
2023-05-10T05:11:17.510Z,100719.09
2023-05-10T05:13:44.338Z,100715.53
2023-05-10T05:16:11.890Z,100720.56
2023-05-10T05:18:38.482Z,100728.44
2023-05-10T05:21:14.802Z,100724.53
2023-05-10T05:23:41.348Z,100732.50
2023-05-10T05:26:07.872Z,100737.41
2023-05-10T05:28:38.092Z,100740.97
2023-05-10T05:31:08.687Z,100744.38
2023-05-10T05:33:35.588Z,100735.38
2023-05-10T05:36:03.205Z,100746.28
2023-05-10T05:38:29.790Z,100742.44
2023-05-10T05:40:56.493Z,100737.84
2023-05-10T05:43:23.281Z,100751.22
2023-05-10T05:45:50.264Z,100729.91
2023-05-10T05:48:16.955Z,100726.69
2023-05-10T05:50:43.512Z,100727.25
2023-05-10T05:53:10.285Z,100736.94
2023-05-10T05:55:36.916Z,100733.75
2023-05-10T05:58:03.761Z,100725.28
2023-05-10T06:00:30.369Z,100722.59
2023-05-10T06:02:56.915Z,100717.19
2023-05-10T06:05:23.562Z,100721.28
2023-05-10T06:07:50.129Z,100733.66
2023-05-10T06:10:16.716Z,100737.88
2023-05-10T06:12:43.393Z,100749.75
2023-05-10T06:15:10.692Z,100732.41
2023-05-10T06:17:37.360Z,100734.72
2023-05-10T06:20:07.116Z,100741.44
2023-05-10T06:22:33.687Z,100735.28
2023-05-10T06:25:00.403Z,100735.63
2023-05-10T06:27:27.001Z,100736.63
2023-05-10T06:30:01.975Z,100737.28
2023-05-10T06:32:36.171Z,100738.56
2023-05-10T06:35:03.008Z,100735.50
2023-05-10T06:37:29.624Z,100743.09
2023-05-10T06:39:56.405Z,100743.38
2023-05-10T06:42:23.001Z,100747.53
2023-05-10T06:44:49.571Z,100744.38
2023-05-10T06:47:16.470Z,100751.28
2023-05-10T06:49:42.986Z,100748.16
2023-05-10T06:52:09.626Z,100738.00
2023-05-10T06:54:36.214Z,100743.06
2023-05-10T06:57:07.165Z,100732.84
2023-05-10T06:59:37.753Z,100753.75
2023-05-10T07:02:04.558Z,100739.16
2023-05-10T07:04:31.295Z,100757.56
2023-05-10T07:06:58.681Z,100761.16
2023-05-10T07:09:25.456Z,100766.13
2023-05-10T07:11:51.988Z,100761.56
2023-05-10T07:14:18.514Z,100766.09
2023-05-10T07:16:45.731Z,100766.50
2023-05-10T07:19:12.344Z,100767.28
2023-05-10T07:21:38.945Z,100767.72
2023-05-10T07:24:05.747Z,100766.72
2023-05-10T07:26:32.443Z,100768.78
2023-05-10T07:28:58.971Z,100776.19
2023-05-10T07:31:25.533Z,100778.53
2023-05-10T07:33:52.326Z,100764.09
2023-05-10T07:36:18.881Z,100761.84
2023-05-10T07:38:45.457Z,100774.06
2023-05-10T07:41:14.820Z,100770.38
2023-05-10T07:43:41.461Z,100763.34
2023-05-10T07:46:08.574Z,100763.81
2023-05-10T07:48:35.289Z,100776.84
2023-05-10T07:51:01.813Z,100787.00
2023-05-10T07:53:28.656Z,100792.44
2023-05-10T07:55:55.935Z,100795.25
2023-05-10T07:58:22.614Z,100790.94
2023-05-10T08:00:50.235Z,100788.31
2023-05-10T08:03:17.076Z,100785.88
2023-05-10T08:05:43.673Z,100788.88
2023-05-10T08:08:10.549Z,100790.56
2023-05-10T08:10:37.075Z,100803.13
2023-05-10T08:13:03.577Z,100823.63
2023-05-10T08:15:30.102Z,100802.69
2023-05-10T08:17:56.635Z,100811.41
2023-05-10T08:20:23.299Z,100805.97
2023-05-10T08:22:51.923Z,100805.25
2023-05-10T08:25:21.276Z,100800.03
2023-05-10T08:27:47.788Z,100809.28
2023-05-10T08:30:14.454Z,100798.63
2023-05-10T08:32:41.107Z,100804.81
2023-05-10T08:35:07.941Z,100800.13
2023-05-10T08:37:37.441Z,100790.94
2023-05-10T08:40:04.351Z,100793.28
2023-05-10T08:42:32.325Z,100808.56
2023-05-10T08:45:00.344Z,100821.78
2023-05-10T08:47:27.298Z,100820.13
2023-05-10T08:49:54.625Z,100819.66
2023-05-10T08:52:25.065Z,100822.38
2023-05-10T08:54:51.553Z,100823.56
2023-05-10T08:57:18.299Z,100824.78
2023-05-10T08:59:45.123Z,100819.63
2023-05-10T09:02:12.970Z,100817.44
2023-05-10T09:04:39.664Z,100828.44
2023-05-10T09:07:07.852Z,100837.13
2023-05-10T09:09:34.830Z,100827.53
2023-05-10T09:12:01.497Z,100834.34
2023-05-10T09:14:28.125Z,100841.63
2023-05-10T09:16:56.270Z,100826.41
2023-05-10T09:19:22.846Z,100819.97
2023-05-10T09:21:49.934Z,100828.09
2023-05-10T09:24:16.636Z,100826.63
2023-05-10T09:26:49.714Z,100831.56
2023-05-10T09:29:17.769Z,100825.06
2023-05-10T09:31:52.672Z,100828.50
2023-05-10T09:34:20.399Z,100823.84
2023-05-10T09:36:54.372Z,100826.88
2023-05-10T09:39:21.399Z,100814.59
2023-05-10T09:41:48.355Z,100817.03
2023-05-10T09:44:18.835Z,100805.22
2023-05-10T09:46:50.099Z,100817.22
2023-05-10T09:49:16.941Z,100822.88
2023-05-10T09:51:43.530Z,100834.00
2023-05-10T09:54:12.039Z,100819.94
2023-05-10T09:56:41.171Z,100828.16
2023-05-10T09:59:12.572Z,100831.28
2023-05-10T10:01:39.989Z,100810.44
2023-05-10T10:04:11.120Z,100817.50
2023-05-10T10:06:41.549Z,100833.28
2023-05-10T10:09:08.836Z,100818.72
2023-05-10T10:11:36.864Z,100815.72
2023-05-10T10:14:04.088Z,100830.66
2023-05-10T10:16:31.510Z,100819.28
2023-05-10T10:18:58.412Z,100824.06
2023-05-10T10:21:25.362Z,100821.56
2023-05-10T10:23:52.761Z,100819.28
2023-05-10T10:26:20.090Z,100821.81
2023-05-10T10:29:01.314Z,100814.13
2023-05-10T10:31:35.984Z,100841.16
2023-05-10T10:34:07.489Z,100807.56
2023-05-10T10:36:41.318Z,100816.75
2023-05-10T10:39:11.167Z,100806.22
2023-05-10T10:41:42.154Z,100818.50
2023-05-10T10:44:24.535Z,100810.41
2023-05-10T10:47:00.359Z,100811.38
2023-05-10T10:49:27.721Z,100820.06
2023-05-10T10:52:22.837Z,100810.59
2023-05-10T10:55:11.777Z,100810.00
2023-05-10T10:57:41.091Z,100808.19
2023-05-10T11:00:28.169Z,100827.19
2023-05-10T11:03:10.217Z,100804.41
2023-05-10T11:05:41.540Z,100798.97
2023-05-10T11:08:17.419Z,100800.22
2023-05-10T11:10:53.238Z,100805.47
2023-05-10T11:13:31.738Z,100800.28
2023-05-10T11:15:59.837Z,100795.22
2023-05-10T11:18:29.701Z,100799.25
2023-05-10T11:20:59.558Z,100798.13
2023-05-10T11:23:31.604Z,100795.59
2023-05-10T11:25:58.308Z,100796.88
2023-05-10T11:28:25.093Z,100791.97
2023-05-10T11:30:52.415Z,100792.25
2023-05-10T11:33:20.559Z,100808.06
2023-05-10T11:35:47.515Z,100795.75
2023-05-10T11:38:14.832Z,100792.13
2023-05-10T11:40:41.991Z,100781.66
2023-05-10T11:43:10.266Z,100785.91
2023-05-10T11:45:36.993Z,100780.81
2023-05-10T11:48:03.991Z,100772.84
2023-05-10T11:50:30.776Z,100773.06
2023-05-10T11:52:57.987Z,100767.50
2023-05-10T11:55:27.553Z,100768.38
2023-05-10T11:58:01.531Z,100763.22
2023-05-10T12:00:28.153Z,100767.53
2023-05-10T12:02:57.672Z,100778.34
2023-05-10T12:05:24.535Z,100766.16
2023-05-10T12:07:51.103Z,100789.81
2023-05-10T12:10:19.158Z,100800.53
2023-05-10T12:12:48.424Z,100789.41
2023-05-10T12:15:23.113Z,100782.66
2023-05-10T12:17:53.471Z,100783.72
2023-05-10T12:20:24.471Z,100776.66
2023-05-10T12:22:57.310Z,100776.72
2023-05-10T12:25:31.192Z,100777.22
2023-05-10T12:27:59.226Z,100775.06
2023-05-10T12:30:31.316Z,100776.03
2023-05-10T12:33:01.966Z,100782.88
2023-05-10T12:35:32.406Z,100792.88
2023-05-10T12:37:59.158Z,100799.47
2023-05-10T12:40:25.929Z,100802.84
2023-05-10T12:42:53.230Z,100791.84
2023-05-10T12:45:19.811Z,100787.78
2023-05-10T12:47:46.425Z,100776.88
2023-05-10T12:50:12.975Z,100775.19
2023-05-10T12:52:39.564Z,100786.84
2023-05-10T12:55:06.316Z,100809.16
2023-05-10T12:57:32.884Z,100810.25
2023-05-10T12:59:59.463Z,100819.84
2023-05-10T13:02:26.098Z,100820.22
2023-05-10T13:04:53.089Z,100819.56
2023-05-10T13:07:19.728Z,100821.81
2023-05-10T13:09:46.361Z,100826.03
2023-05-10T13:12:13.000Z,100826.03
2023-05-10T13:14:41.395Z,100821.06
2023-05-10T13:17:08.227Z,100822.94
2023-05-10T13:19:34.854Z,100819.34
2023-05-10T13:22:01.394Z,100813.06
2023-05-10T13:24:27.897Z,100827.34
2023-05-10T13:26:54.424Z,100828.66
2023-05-10T13:29:22.051Z,100831.03
2023-05-10T13:31:48.687Z,100831.69
2023-05-10T13:34:15.412Z,100835.41
2023-05-10T13:36:42.118Z,100835.25
2023-05-10T13:39:09.492Z,100825.03
2023-05-10T13:41:36.024Z,100818.75
2023-05-10T13:44:02.497Z,100814.31
2023-05-10T13:46:31.829Z,100818.53
2023-05-10T13:48:58.358Z,100816.16
2023-05-10T13:51:24.916Z,100812.97
2023-05-10T13:53:51.521Z,100810.16
2023-05-10T13:56:18.057Z,100809.69
2023-05-10T13:58:44.652Z,100814.47
2023-05-10T14:01:11.150Z,100812.63
2023-05-10T14:03:38.134Z,100818.34
2023-05-10T14:06:04.822Z,100823.22
2023-05-10T14:08:31.393Z,100824.19
2023-05-10T14:10:58.046Z,100830.97
2023-05-10T14:13:24.916Z,100824.47
2023-05-10T14:15:52.224Z,100823.44
2023-05-10T14:18:18.848Z,100826.16
2023-05-10T14:20:45.890Z,100825.03
2023-05-10T14:23:13.446Z,100826.59
2023-05-10T14:25:42.745Z,100821.91
2023-05-10T14:28:09.440Z,100822.66
2023-05-10T14:30:36.074Z,100825.09
2023-05-10T14:33:03.657Z,100819.56
2023-05-10T14:35:32.054Z,100814.00
2023-05-10T14:37:59.351Z,100810.66
2023-05-10T14:40:25.947Z,100811.84
2023-05-10T14:42:53.959Z,100814.59
2023-05-10T14:45:21.553Z,100815.63
2023-05-10T14:47:48.144Z,100812.50
2023-05-10T14:50:24.653Z,100812.34
2023-05-10T14:53:00.145Z,100808.22
2023-05-10T14:55:26.778Z,100808.69
2023-05-10T14:57:53.513Z,100800.59
2023-05-10T15:00:20.526Z,100804.63
2023-05-10T15:02:49.052Z,100803.22
2023-05-10T15:05:16.556Z,100798.03
2023-05-10T15:07:44.776Z,100800.41
2023-05-10T15:10:12.377Z,100796.09
2023-05-10T15:12:39.210Z,100799.09
2023-05-10T15:15:06.874Z,100793.25
2023-05-10T15:17:33.609Z,100795.97
2023-05-10T15:20:00.318Z,100796.44
2023-05-10T15:22:29.191Z,100786.22
2023-05-10T15:24:55.831Z,100788.34
2023-05-10T15:27:23.856Z,100792.78
2023-05-10T15:29:50.671Z,100789.41
2023-05-10T15:32:17.214Z,100787.88
2023-05-10T15:34:43.724Z,100792.50
2023-05-10T15:37:10.984Z,100800.47
2023-05-10T15:39:37.556Z,100795.41
2023-05-10T15:42:07.232Z,100796.19
2023-05-10T15:44:36.016Z,100800.00
2023-05-10T15:47:03.906Z,100791.09
2023-05-10T15:49:30.608Z,100782.84
2023-05-10T15:51:57.260Z,100782.78
2023-05-10T15:54:23.809Z,100777.69
2023-05-10T15:56:50.436Z,100785.38
2023-05-10T15:59:17.032Z,100787.66
2023-05-10T16:01:43.580Z,100788.88
2023-05-10T16:04:10.159Z,100790.75
2023-05-10T16:06:37.928Z,100793.66
2023-05-10T16:09:04.771Z,100793.47
2023-05-10T16:11:31.429Z,100793.09
2023-05-10T16:13:58.156Z,100792.88
2023-05-10T16:16:24.947Z,100796.47
2023-05-10T16:18:52.437Z,100793.75
2023-05-10T16:21:19.123Z,100788.31
2023-05-10T16:23:46.591Z,100789.16
2023-05-10T16:26:13.222Z,100786.44
2023-05-10T16:28:40.994Z,100787.84
2023-05-10T16:31:07.637Z,100799.94
2023-05-10T16:33:34.232Z,100794.03
2023-05-10T16:36:00.886Z,100805.56
2023-05-10T16:38:27.596Z,100804.56
2023-05-10T16:40:55.411Z,100805.56
2023-05-10T16:43:23.997Z,100797.50
2023-05-10T16:45:51.885Z,100805.84
2023-05-10T16:48:18.488Z,100807.56
2023-05-10T16:50:45.056Z,100801.94
2023-05-10T16:53:14.577Z,100807.38
2023-05-10T16:55:41.147Z,100802.28
2023-05-10T16:58:07.732Z,100801.16
2023-05-10T17:00:34.308Z,100796.66
2023-05-10T17:03:01.015Z,100798.13
2023-05-10T17:05:27.752Z,100793.25
2023-05-10T17:07:54.719Z,100793.25
2023-05-10T17:10:21.219Z,100809.06
2023-05-10T17:12:47.781Z,100799.56
2023-05-10T17:15:16.521Z,100801.63
2023-05-10T17:17:43.507Z,100804.75
2023-05-10T17:20:10.600Z,100799.81
2023-05-10T17:22:37.118Z,100797.66
2023-05-10T17:25:04.198Z,100800.75
2023-05-10T17:27:31.560Z,100794.16
2023-05-10T17:29:58.783Z,100795.94
2023-05-10T17:32:25.972Z,100798.19
2023-05-10T17:34:52.553Z,100799.94
2023-05-10T17:37:19.347Z,100791.84
2023-05-10T17:39:46.508Z,100798.00
2023-05-10T17:42:13.778Z,100801.94
2023-05-10T17:44:40.469Z,100796.56
2023-05-10T17:47:07.024Z,100798.09
2023-05-10T17:49:33.599Z,100804.75
2023-05-10T17:52:00.119Z,100800.19
2023-05-10T17:54:26.954Z,100805.66
2023-05-10T17:56:53.669Z,100809.06
2023-05-10T17:59:20.981Z,100809.78
2023-05-10T18:01:48.400Z,100820.34
2023-05-10T18:04:14.967Z,100810.69
2023-05-10T18:06:41.740Z,100817.66
2023-05-10T18:09:08.548Z,100820.03
2023-05-10T18:11:36.118Z,100812.44
2023-05-10T18:14:02.670Z,100808.22
2023-05-10T18:16:29.310Z,100803.16
2023-05-10T18:18:55.966Z,100796.53
2023-05-10T18:21:22.673Z,100791.28
2023-05-10T18:23:49.315Z,100789.94
2023-05-10T18:26:19.435Z,100786.38
2023-05-10T18:28:46.089Z,100789.47
2023-05-10T18:31:12.884Z,100780.44
2023-05-10T18:33:39.680Z,100786.75
2023-05-10T18:36:07.015Z,100776.72
2023-05-10T18:38:33.601Z,100764.84
2023-05-10T18:41:00.260Z,100778.06
2023-05-10T18:43:26.905Z,100788.56
2023-05-10T18:45:53.527Z,100787.06
2023-05-10T18:48:20.425Z,100798.91
2023-05-10T18:50:47.349Z,100793.69
2023-05-10T18:53:14.143Z,100796.94
2023-05-10T18:55:40.769Z,100798.28
2023-05-10T18:58:07.246Z,100808.13
2023-05-10T19:00:33.875Z,100814.75
2023-05-10T19:03:00.545Z,100806.28
2023-05-10T19:05:30.697Z,100806.28
2023-05-10T19:07:57.831Z,100803.22
2023-05-10T19:10:24.736Z,100799.69
2023-05-10T19:12:51.770Z,100806.97
2023-05-10T19:15:20.869Z,100804.44
2023-05-10T19:17:50.974Z,100813.25
2023-05-10T19:20:18.836Z,100812.22
2023-05-10T19:23:02.264Z,100815.44
2023-05-10T19:25:35.419Z,100820.84
2023-05-10T19:28:02.134Z,100827.81
2023-05-10T19:30:28.785Z,100836.63
2023-05-10T19:32:55.762Z,100840.88
2023-05-10T19:35:23.049Z,100843.91
2023-05-10T19:37:51.752Z,100838.84
2023-05-10T19:40:18.843Z,100839.19
2023-05-10T19:42:47.502Z,100836.63
2023-05-10T19:45:15.757Z,100849.72
2023-05-10T19:47:43.230Z,100850.03
2023-05-10T19:50:10.401Z,100858.53
2023-05-10T19:52:37.793Z,100865.97
2023-05-10T19:55:05.512Z,100870.88
2023-05-10T19:57:32.719Z,100869.22
2023-05-10T20:00:02.574Z,100871.41
2023-05-10T20:02:29.991Z,100879.03
2023-05-10T20:04:56.885Z,100875.63
2023-05-10T20:07:24.200Z,100881.22
2023-05-10T20:09:51.827Z,100882.59
2023-05-10T20:12:19.227Z,100883.25
2023-05-10T20:14:49.066Z,100880.53
2023-05-10T20:17:16.491Z,100880.72
2023-05-10T20:19:44.238Z,100877.66
2023-05-10T20:22:12.953Z,100876.13
2023-05-10T20:24:39.629Z,100881.56
2023-05-10T20:27:06.878Z,100885.78
2023-05-10T20:29:33.950Z,100893.44
2023-05-10T20:32:00.536Z,100881.72
2023-05-10T20:34:27.296Z,100882.91
2023-05-10T20:36:54.110Z,100883.28
2023-05-10T20:39:23.530Z,100888.00
2023-05-10T20:41:50.878Z,100889.84
2023-05-10T20:44:17.701Z,100883.59
2023-05-10T20:46:45.692Z,100895.28
2023-05-10T20:49:13.691Z,100893.75
2023-05-10T20:51:40.645Z,100897.97
2023-05-10T20:54:07.826Z,100897.13
2023-05-10T20:56:35.013Z,100894.41
2023-05-10T20:59:01.541Z,100900.53
2023-05-10T21:01:28.047Z,100904.06
2023-05-10T21:03:54.653Z,100900.53
2023-05-10T21:06:21.168Z,100900.00
2023-05-10T21:08:47.908Z,100895.59
2023-05-10T21:11:14.483Z,100895.94
2023-05-10T21:13:41.154Z,100898.31
2023-05-10T21:16:07.811Z,100905.41
2023-05-10T21:18:34.475Z,100906.59
2023-05-10T21:21:01.117Z,100906.28
2023-05-10T21:23:27.694Z,100904.56
2023-05-10T21:25:54.398Z,100902.53
2023-05-10T21:28:20.994Z,100900.00
2023-05-10T21:30:47.972Z,100894.75
2023-05-10T21:33:14.635Z,100896.78
2023-05-10T21:35:42.907Z,100897.97
2023-05-10T21:38:09.881Z,100899.13
2023-05-10T21:40:36.559Z,100904.03
2023-05-10T21:43:03.033Z,100898.09
2023-05-10T21:45:32.832Z,100901.13
2023-05-10T21:48:00.057Z,100896.00
2023-05-10T21:50:27.155Z,100897.34
2023-05-10T21:52:53.704Z,100906.97
2023-05-10T21:55:21.926Z,100899.19
2023-05-10T21:57:50.590Z,100912.88
2023-05-10T22:00:19.316Z,100915.25
2023-05-10T22:02:46.760Z,100917.75
2023-05-10T22:05:13.643Z,100919.56
2023-05-10T22:07:40.418Z,100916.16
2023-05-10T22:10:08.804Z,100915.91
2023-05-10T22:12:35.880Z,100928.50
2023-05-10T22:17:32.035Z,100918.06
2023-05-10T22:19:58.562Z,100928.09
2023-05-10T22:22:25.149Z,100926.56
2023-05-10T22:24:51.643Z,100925.19
2023-05-10T22:27:18.207Z,100922.66
2023-05-10T22:29:46.464Z,100924.47
2023-05-10T22:32:13.034Z,100930.22
2023-05-10T22:34:43.160Z,100929.53
2023-05-10T22:37:09.724Z,100930.22
2023-05-10T22:39:36.280Z,100935.47
2023-05-10T22:42:02.830Z,100921.47
2023-05-10T22:44:29.373Z,100928.75
2023-05-10T22:46:56.015Z,100922.78
2023-05-10T22:49:22.907Z,100918.72
2023-05-10T22:51:49.465Z,100921.72
2023-05-10T22:54:16.424Z,100920.88
2023-05-10T22:56:43.037Z,100932.53
2023-05-10T22:59:10.054Z,100936.25
2023-05-10T23:01:36.700Z,100932.16
2023-05-10T23:04:03.598Z,100936.03
2023-05-10T23:06:30.125Z,100935.34
2023-05-10T23:08:56.693Z,100927.91
2023-05-10T23:11:23.240Z,100923.22
2023-05-10T23:13:50.943Z,100914.06
2023-05-10T23:16:18.320Z,100911.06
2023-05-10T23:18:44.920Z,100905.19
2023-05-10T23:21:11.614Z,100911.66
2023-05-10T23:23:38.180Z,100907.31
2023-05-10T23:26:05.233Z,100908.38
2023-05-10T23:28:32.244Z,100907.63
2023-05-10T23:31:00.381Z,100904.59
2023-05-10T23:33:27.603Z,100908.69
2023-05-10T23:35:55.100Z,100915.63
2023-05-10T23:38:22.027Z,100918.19
2023-05-10T23:40:49.842Z,100910.59
2023-05-10T23:43:17.711Z,100903.16
2023-05-10T23:45:52.588Z,100917.38
2023-05-10T23:48:19.162Z,100910.25
2023-05-10T23:50:45.671Z,100918.38
2023-05-10T23:53:12.407Z,100909.75
2023-05-10T23:55:38.958Z,100906.88
2023-05-10T23:58:05.538Z,100918.72
